Time;durP1;ratioP1;P1;durP2;ratioP2;P2;SDS_P1;SDS_P2;PMS_P1;PMS_P2;Temp;Humidity;BMP_temperature;BMP_pressure;BME280_temperature;BME280_humidity;BME280_pressure;Samples;Min_cycle;Max_cycle;Signal;HPM_P1;HPM_P2
2021/03/13 00:01:51;;;;;;;39.45;17.92;;;;;;;4.09;64.31;93782.09;5091185;28;20024;-71
2021/03/13 00:04:16;;;;;;;54.50;22.00;;;;;;;4.05;64.29;93771.34;5092339;28;20024;-70
2021/03/13 00:06:42;;;;;;;48.65;21.42;;;;;;;4.01;64.85;93786.91;5092415;28;20046;-70
2021/03/13 00:09:07;;;;;;;46.97;21.63;;;;;;;4.00;64.60;93787.19;5092467;28;20027;-70
2021/03/13 00:11:33;;;;;;;54.53;24.33;;;;;;;4.01;64.52;93789.53;5090842;28;20352;-71
2021/03/13 00:13:58;;;;;;;46.13;22.35;;;;;;;4.03;64.55;93802.47;5090858;28;20028;-70
2021/03/13 00:16:23;;;;;;;47.72;20.45;;;;;;;3.89;64.66;93796.19;5092300;28;20048;-71
2021/03/13 00:18:49;;;;;;;46.67;20.58;;;;;;;3.76;64.99;93795.72;5091131;28;20081;-70
2021/03/13 00:21:14;;;;;;;38.55;19.90;;;;;;;3.77;65.47;93791.25;5092189;28;20414;-71
2021/03/13 00:23:39;;;;;;;42.17;19.92;;;;;;;3.73;65.27;93787.59;5092007;28;20031;-71
2021/03/13 00:26:05;;;;;;;44.08;19.88;;;;;;;3.67;65.51;93780.78;5090517;28;20531;-70
2021/03/13 00:28:30;;;;;;;44.00;18.90;;;;;;;3.63;65.75;93769.97;5091920;28;20114;-70
2021/03/13 00:30:56;;;;;;;40.83;18.52;;;;;;;3.63;66.05;93767.34;5090623;28;20076;-70
2021/03/13 00:33:25;;;;;;;42.67;19.83;;;;;;;3.65;66.06;93757.31;5090509;28;20031;-70
2021/03/13 00:35:52;;;;;;;45.88;21.42;;;;;;;3.70;65.79;93753.84;5091557;28;20063;-70
2021/03/13 00:38:19;;;;;;;46.58;21.45;;;;;;;3.68;65.89;93761.25;5090672;28;20030;-70
2021/03/13 00:40:47;;;;;;;44.70;21.48;;;;;;;3.73;65.87;93756.75;5091778;28;20035;-71
2021/03/13 00:43:14;;;;;;;45.92;20.77;;;;;;;3.78;65.29;93772.53;5091662;28;20019;-70
2021/03/13 00:45:41;;;;;;;44.40;20.10;;;;;;;3.71;65.49;93764.13;5091651;28;20058;-70
2021/03/13 00:48:07;;;;;;;42.92;19.58;;;;;;;3.76;65.44;93763.31;5087454;28;20073;-70
2021/03/13 00:50:34;;;;;;;42.67;19.58;;;;;;;3.78;65.45;93761.97;5090140;28;20115;-70
2021/03/13 00:53:00;;;;;;;33.17;17.17;;;;;;;3.82;65.40;93754.31;5089945;28;20097;-70
2021/03/13 00:55:26;;;;;;;37.05;18.05;;;;;;;3.88;65.34;93763.78;5089995;28;20032;-70
2021/03/13 00:57:51;;;;;;;42.58;17.05;;;;;;;3.91;64.58;93765.06;5091325;28;20036;-70
2021/03/13 01:00:19;;;;;;;35.20;18.63;;;;;;;3.73;64.91;93759.38;5090021;28;20023;-70
2021/03/13 01:02:46;;;;;;;35.53;14.65;;;;;;;3.65;65.06;93765.22;5090201;28;20070;-70
2021/03/13 01:05:12;;;;;;;34.95;16.70;;;;;;;3.49;65.92;93756.59;5090627;28;20049;-70
2021/03/13 01:07:38;;;;;;;48.30;17.40;;;;;;;3.61;65.59;93751.78;5090107;28;20074;-71
2021/03/13 01:10:29;;;;;;;37.85;16.90;;;;;;;3.61;65.76;93735.19;5091393;28;20027;-71
2021/03/13 01:12:55;;;;;;;34.05;15.70;;;;;;;3.65;65.72;93730.97;5090120;28;20047;-69
2021/03/13 01:15:23;;;;;;;38.72;16.67;;;;;;;3.70;65.82;93733.53;5089978;28;20487;-70
2021/03/13 01:17:48;;;;;;;39.50;16.98;;;;;;;3.79;65.74;93729.28;5091580;28;20031;-70
2021/03/13 01:20:16;;;;;;;34.45;16.15;;;;;;;3.89;65.66;93728.44;5091500;28;20042;-70
2021/03/13 01:22:43;;;;;;;37.17;16.42;;;;;;;3.91;65.39;93725.50;5090886;28;20034;-69
2021/03/13 01:25:09;;;;;;;31.52;17.15;;;;;;;3.96;65.35;93731.53;5090500;28;20024;-69
2021/03/13 01:27:35;;;;;;;32.92;16.17;;;;;;;4.04;65.64;93726.75;5090454;28;20035;-69
2021/03/13 01:30:01;;;;;;;34.47;16.75;;;;;;;4.19;64.86;93730.09;5088977;28;20024;-69
2021/03/13 01:32:26;;;;;;;36.55;17.50;;;;;;;4.18;64.96;93723.22;5088865;28;20032;-69
2021/03/13 01:34:52;;;;;;;50.00;23.25;;;;;;;4.19;64.98;93740.63;5090515;28;20031;-69
2021/03/13 01:37:21;;;;;;;51.13;22.88;;;;;;;4.23;64.68;93730.28;5090391;28;20058;-69
2021/03/13 01:39:46;;;;;;;55.05;23.05;;;;;;;4.29;64.64;93737.09;5090278;28;20454;-69
2021/03/13 01:42:12;;;;;;;51.70;22.60;;;;;;;4.34;64.79;93726.53;5090291;28;20061;-69
2021/03/13 01:44:38;;;;;;;52.30;23.20;;;;;;;4.38;64.62;93732.81;5087413;28;20020;-69
2021/03/13 01:47:04;;;;;;;51.80;19.65;;;;;;;4.43;64.38;93740.69;5090194;28;20078;-69
2021/03/13 01:49:32;;;;;;;53.45;21.73;;;;;;;4.41;64.27;93740.16;5088787;28;20395;-69
2021/03/13 01:51:59;;;;;;;34.50;16.02;;;;;;;4.33;64.32;93737.34;5090244;28;20027;-69
2021/03/13 01:54:25;;;;;;;39.40;16.33;;;;;;;4.24;64.20;93725.81;5089390;28;20047;-69
2021/03/13 01:56:51;;;;;;;30.40;15.40;;;;;;;4.17;65.06;93728.75;5089720;28;20106;-69
2021/03/13 01:59:20;;;;;;;36.15;17.20;;;;;;;4.12;65.01;93726.94;5091118;28;20115;-69
2021/03/13 02:01:47;;;;;;;30.23;16.77;;;;;;;4.16;65.13;93722.69;5089751;28;20437;-69
2021/03/13 02:04:14;;;;;;;32.45;16.92;;;;;;;4.19;65.53;93714.25;5089570;28;20021;-70
2021/03/13 02:06:39;;;;;;;36.50;16.02;;;;;;;4.24;65.05;93713.41;5089355;28;20032;-70
2021/03/13 02:09:22;;;;;;;38.97;17.17;;;;;;;4.30;65.29;93720.22;5089541;28;20024;-70
2021/03/13 02:12:05;;;;;;;33.55;17.98;;;;;;;4.34;64.71;93704.63;5090747;28;20376;-70
2021/03/13 02:14:46;;;;;;;37.55;17.15;;;;;;;4.37;64.58;93707.47;5089138;28;20040;-69
2021/03/13 02:17:16;;;;;;;34.47;16.77;;;;;;;4.38;64.80;93698.50;5092148;28;20131;-70
2021/03/13 02:20:00;;;;;;;34.53;17.70;;;;;;;4.39;65.12;93708.00;5094796;28;20032;-70
2021/03/13 02:22:28;;;;;;;40.38;17.73;;;;;;;4.42;65.27;93709.31;5093132;28;20111;-70
2021/03/13 02:25:00;;;;;;;43.80;19.00;;;;;;;4.37;65.47;93709.34;5094639;28;20020;-70
2021/03/13 02:27:28;;;;;;;38.17;19.25;;;;;;;4.41;65.63;93702.44;5087244;28;20028;-69
2021/03/13 02:30:03;;;;;;;37.33;18.70;;;;;;;4.47;65.83;93713.75;5092003;28;20024;-69
2021/03/13 02:32:42;;;;;;;35.40;18.23;;;;;;;4.47;65.74;93706.59;5089701;28;20158;-69
2021/03/13 02:35:22;;;;;;;36.78;19.67;;;;;;;4.43;65.41;93687.13;5094281;28;20453;-68
2021/03/13 02:37:56;;;;;;;37.17;18.50;;;;;;;4.43;65.28;93687.13;5094406;28;20024;-69
2021/03/13 02:40:25;;;;;;;39.85;18.23;;;;;;;4.42;65.42;93688.19;5089851;28;20028;-69
2021/03/13 02:42:57;;;;;;;34.10;17.63;;;;;;;4.42;65.88;93694.25;5094152;28;20393;-69
2021/03/13 02:45:30;;;;;;;;;;;;;;;4.45;65.99;93690.25;5094192;28;20016;-69
2021/03/13 02:47:57;;;;;;;35.90;18.10;;;;;;;4.40;66.49;93682.41;5094106;28;19912;-69
2021/03/13 02:50:24;;;;;;;41.55;20.77;;;;;;;4.42;66.47;93675.00;5094005;28;20035;-69
2021/03/13 02:52:52;;;;;;;36.67;21.05;;;;;;;4.48;66.34;93681.81;5093654;28;20078;-69
2021/03/13 02:55:19;;;;;;;42.60;20.75;;;;;;;4.50;66.51;93677.03;5092338;28;20398;-69
2021/03/13 02:57:47;;;;;;;38.95;18.92;;;;;;;4.52;66.05;93674.09;5093342;28;20104;-69
2021/03/13 03:00:16;;;;;;;39.40;19.13;;;;;;;4.55;66.14;93682.25;5093483;28;20043;-71
2021/03/13 03:02:45;;;;;;;37.65;19.73;;;;;;;4.53;66.30;93671.19;5092347;28;20035;-70
2021/03/13 03:05:11;;;;;;;36.45;18.73;;;;;;;4.56;66.16;93661.91;5093489;28;20032;-69
2021/03/13 03:07:37;;;;;;;36.60;18.58;;;;;;;4.58;66.09;93657.13;5093658;28;20317;-70
2021/03/13 03:10:07;;;;;;;40.97;19.85;;;;;;;4.63;65.81;93665.03;5093471;28;20027;-69
2021/03/13 03:12:34;;;;;;;35.45;18.17;;;;;;;4.69;65.78;93671.03;5093421;28;20054;-69
2021/03/13 03:15:01;;;;;;;44.88;19.92;;;;;;;4.72;65.59;93676.56;5091915;28;20024;-69
2021/03/13 03:17:28;;;;;;;30.42;16.95;;;;;;;4.71;65.61;93682.09;5091809;28;20028;-69
2021/03/13 03:19:57;;;;;;;35.80;18.55;;;;;;;4.61;65.68;93667.94;5093245;28;20035;-69
2021/03/13 03:22:23;;;;;;;38.85;18.58;;;;;;;4.62;65.79;93674.81;5093305;28;20043;-69
2021/03/13 03:24:49;;;;;;;44.78;20.45;;;;;;;4.66;65.61;93679.50;5093214;28;20042;-69
2021/03/13 03:27:14;;;;;;;36.63;18.48;;;;;;;4.56;65.52;93673.28;5093015;28;20032;-69
2021/03/13 03:29:40;;;;;;;33.03;15.52;;;;;;;4.58;65.09;93679.06;5092484;28;20431;-70
2021/03/13 03:32:08;;;;;;;25.60;12.88;;;;;;;4.41;65.49;93673.41;5091863;28;20074;-70
2021/03/13 03:34:34;;;;;;;30.27;16.30;;;;;;;4.13;66.09;93675.78;5092870;28;20036;-69
2021/03/13 03:36:59;;;;;;;33.33;16.60;;;;;;;3.90;66.88;93679.91;5093093;28;20475;-70
2021/03/13 03:39:25;;;;;;;35.05;18.35;;;;;;;3.68;67.86;93680.31;5091543;28;20028;-69
2021/03/13 03:41:54;;;;;;;35.60;18.42;;;;;;;3.54;68.30;93688.06;5093047;28;20128;-68
2021/03/13 03:44:24;;;;;;;37.72;18.77;;;;;;;3.46;68.61;93679.94;5092987;28;20028;-68
2021/03/13 03:46:58;;;;;;;40.25;19.48;;;;;;;3.40;69.02;93685.25;5090969;28;20020;-69
2021/03/13 03:49:24;;;;;;;33.85;17.27;;;;;;;3.45;69.12;93689.69;5093061;28;20478;-69
2021/03/13 03:51:51;;;;;;;38.20;18.77;;;;;;;3.53;69.15;93688.34;5091437;28;20027;-69
2021/03/13 03:54:18;;;;;;;38.33;18.30;;;;;;;3.56;69.18;93693.03;5091459;28;20436;-69
2021/03/13 03:56:45;;;;;;;38.22;19.17;;;;;;;3.61;69.19;93701.72;5091155;28;20035;-69
2021/03/13 03:59:16;;;;;;;35.53;17.98;;;;;;;3.67;68.58;93699.84;5092972;28;20036;-69
2021/03/13 04:01:50;;;;;;;32.13;17.30;;;;;;;3.74;68.28;93699.53;5092723;28;20119;-69
2021/03/13 04:04:19;;;;;;;36.55;18.73;;;;;;;3.71;67.94;93684.28;5091478;28;20035;-68
2021/03/13 04:06:46;;;;;;;38.38;19.80;;;;;;;3.75;68.05;93685.31;5092601;28;20031;-69
2021/03/13 04:09:12;;;;;;;35.30;17.67;;;;;;;3.77;67.69;93691.88;5092448;28;20403;-69
2021/03/13 04:11:38;;;;;;;43.92;19.15;;;;;;;3.81;67.87;93706.06;5092209;28;20035;-69
2021/03/13 04:14:05;;;;;;;32.22;18.05;;;;;;;3.86;67.65;93707.09;5092166;28;20437;-69
2021/03/13 04:16:31;;;;;;;36.17;18.77;;;;;;;3.91;67.53;93702.59;5092000;28;20047;-69
2021/03/13 04:19:00;;;;;;;37.85;19.42;;;;;;;3.97;67.46;93696.22;5090816;28;20028;-69
2021/03/13 04:21:27;;;;;;;36.13;19.98;;;;;;;3.95;67.38;93697.56;5088110;28;20050;-70
2021/03/13 04:23:54;;;;;;;41.47;21.27;;;;;;;3.95;67.16;93708.09;5092409;28;20051;-69
2021/03/13 04:26:21;;;;;;;37.67;19.63;;;;;;;3.97;66.90;93695.44;5091214;28;20109;-70
2021/03/13 04:28:47;;;;;;;37.88;19.13;;;;;;;3.90;67.23;93693.09;5090740;28;20068;-69
2021/03/13 04:31:14;;;;;;;42.17;23.13;;;;;;;3.87;67.33;93693.66;5092218;28;20498;-70
2021/03/13 04:33:41;;;;;;;38.65;20.85;;;;;;;3.88;67.47;93689.94;5091779;28;20023;-70
2021/03/13 04:36:07;;;;;;;44.50;21.00;;;;;;;3.88;67.40;93681.25;5091898;28;20020;-70
2021/03/13 04:38:33;;;;;;;39.30;19.50;;;;;;;3.90;67.50;93679.13;5091735;28;20103;-70
2021/03/13 04:40:59;;;;;;;35.80;18.55;;;;;;;3.73;67.67;93682.16;5090568;28;20112;-69
2021/03/13 04:43:26;;;;;;;38.42;20.17;;;;;;;3.81;67.34;93690.25;5092142;28;20395;-69
2021/03/13 04:45:57;;;;;;;41.45;20.10;;;;;;;3.86;67.17;93689.44;5090196;28;20085;-69
2021/03/13 04:48:23;;;;;;;38.80;19.95;;;;;;;3.78;67.41;93685.53;5091890;28;20023;-69
2021/03/13 04:50:49;;;;;;;40.83;20.40;;;;;;;3.78;67.40;93680.25;5091579;28;20097;-69
2021/03/13 04:53:14;;;;;;;43.53;20.55;;;;;;;3.81;67.45;93687.63;5091332;28;20135;-69
2021/03/13 04:55:39;;;;;;;44.05;20.45;;;;;;;3.78;67.30;93682.09;5091734;28;20298;-70
2021/03/13 04:58:05;;;;;;;29.77;16.45;;;;;;;3.72;66.85;93680.56;5089907;28;20459;-69
2021/03/13 05:00:30;;;;;;;35.35;17.88;;;;;;;3.64;67.26;93676.66;5090245;28;20020;-70
2021/03/13 05:02:56;;;;;;;38.20;19.35;;;;;;;3.63;67.51;93680.38;5091322;28;20055;-70
2021/03/13 05:05:21;;;;;;;36.40;20.05;;;;;;;3.61;67.68;93677.22;5090178;28;20023;-70
2021/03/13 05:07:47;;;;;;;44.58;21.33;;;;;;;3.65;67.70;93675.59;5089971;28;20031;-70
2021/03/13 05:10:12;;;;;;;47.95;23.88;;;;;;;3.67;67.41;93673.47;5091363;28;20044;-70
2021/03/13 05:12:38;;;;;;;44.78;20.88;;;;;;;3.74;67.43;93678.44;5091187;28;20028;-71
2021/03/13 05:15:06;;;;;;;42.35;21.52;;;;;;;3.81;67.22;93686.84;5090524;28;20036;-70
2021/03/13 05:17:32;;;;;;;40.05;19.95;;;;;;;3.89;66.36;93690.72;5090875;28;20076;-69
2021/03/13 05:19:57;;;;;;;37.55;16.92;;;;;;;3.82;66.17;93696.31;5090661;28;20399;-69
2021/03/13 05:22:23;;;;;;;29.42;15.48;;;;;;;3.80;65.88;93707.13;5090776;28;20027;-69
2021/03/13 05:24:48;;;;;;;26.02;13.80;;;;;;;3.84;65.73;93702.09;5089593;28;20406;-69
2021/03/13 05:27:13;;;;;;;31.73;15.40;;;;;;;3.85;65.67;93711.59;5090488;28;20092;-69
2021/03/13 05:29:39;;;;;;;35.22;18.73;;;;;;;3.65;66.39;93712.50;5089513;28;20452;-69
2021/03/13 05:32:05;;;;;;;36.50;18.63;;;;;;;3.55;66.95;93715.19;5090343;28;20023;-70
2021/03/13 05:34:30;;;;;;;35.17;19.30;;;;;;;3.51;67.47;93722.06;5090321;28;20103;-70
2021/03/13 05:36:55;;;;;;;37.10;18.95;;;;;;;3.40;68.31;93719.50;5090128;28;20111;-70
2021/03/13 05:39:21;;;;;;;45.28;20.60;;;;;;;3.37;68.89;93725.28;5088925;28;20019;-69
2021/03/13 05:41:47;;;;;;;38.80;20.45;;;;;;;3.37;69.00;93727.94;5090611;28;20529;-69
2021/03/13 05:44:13;;;;;;;42.22;21.50;;;;;;;3.35;69.19;93721.34;5089185;28;20028;-70
2021/03/13 05:46:43;;;;;;;41.08;22.02;;;;;;;3.30;69.35;93719.53;5090532;28;20162;-70
2021/03/13 05:49:09;;;;;;;39.90;20.83;;;;;;;3.37;69.16;93738.47;5090480;28;20025;-70
2021/03/13 05:51:42;;;;;;;39.67;20.27;;;;;;;3.39;69.04;93741.63;5089874;28;20348;-69
2021/03/13 05:54:08;;;;;;;47.58;23.05;;;;;;;3.35;69.14;93735.31;5089986;28;20040;-70
2021/03/13 05:56:34;;;;;;;44.60;22.92;;;;;;;3.15;70.09;93743.31;5090126;28;20099;-69
2021/03/13 05:59:01;;;;;;;53.95;26.80;;;;;;;3.17;70.69;93731.44;5090299;28;20030;-69
2021/03/13 06:01:27;;;;;;;48.33;24.00;;;;;;;3.27;70.94;93708.75;5089015;28;20111;-69
2021/03/13 06:03:54;;;;;;;52.17;25.05;;;;;;;3.35;70.66;93713.47;5090276;28;20020;-70
2021/03/13 06:06:21;;;;;;;49.22;23.88;;;;;;;3.50;70.46;93715.22;5088972;28;20027;-69
2021/03/13 06:08:48;;;;;;;59.00;28.08;;;;;;;3.51;70.11;93719.44;5090110;28;20031;-69
2021/03/13 06:11:14;;;;;;;54.67;26.92;;;;;;;3.61;69.92;93727.28;5090040;28;20020;-70
2021/03/13 06:13:39;;;;;;;56.92;27.67;;;;;;;3.70;69.22;93738.03;5088859;28;20028;-69
2021/03/13 06:16:05;;;;;;;53.95;25.67;;;;;;;3.77;69.37;93735.91;5088905;28;20495;-70
2021/03/13 06:18:48;;;;;;;56.17;26.92;;;;;;;3.90;68.83;93756.38;5089846;28;20093;-69
2021/03/13 06:21:25;;;;;;;55.58;25.13;;;;;;;3.94;68.31;93744.22;5090342;28;20098;-69
2021/03/13 06:24:03;;;;;;;54.08;25.63;;;;;;;4.04;68.34;93753.91;5090358;28;20081;-70
2021/03/13 06:27:00;;;;;;;56.88;25.27;;;;;;;4.19;68.07;93747.75;5090782;28;20039;-70
2021/03/13 06:29:27;;;;;;;50.00;25.45;;;;;;;4.35;67.73;93758.97;5090342;28;20031;-70
2021/03/13 06:32:11;;;;;;;49.15;25.98;;;;;;;4.26;67.75;93763.28;5089864;28;20024;-70
2021/03/13 06:34:37;;;;;;;52.33;27.08;;;;;;;4.37;67.68;93757.63;5086740;28;20028;-69
2021/03/13 06:37:41;;;;;;;56.08;28.10;;;;;;;4.60;67.00;93763.25;5088910;28;20039;-69
2021/03/13 06:40:08;;;;;;;52.40;26.88;;;;;;;4.80;66.53;93760.44;5008022;28;20036;-69
2021/03/13 06:42:34;;;;;;;54.22;27.40;;;;;;;4.97;66.13;93760.00;5008347;28;20026;-69
2021/03/13 06:45:05;;;;;;;49.75;26.23;;;;;;;5.14;65.58;93761.41;5035880;28;20032;-69
2021/03/13 06:47:36;;;;;;;49.97;24.13;;;;;;;5.27;64.91;93762.59;5090037;28;20020;-70
2021/03/13 06:50:15;;;;;;;47.92;25.48;;;;;;;5.42;64.69;93775.63;5088491;28;20035;-70
2021/03/13 06:52:42;;;;;;;46.55;24.10;;;;;;;5.59;63.92;93783.09;5075339;28;20036;-69
2021/03/13 06:55:25;;;;;;;42.50;22.27;;;;;;;5.75;62.96;93781.84;5090350;28;20028;-70
2021/03/13 06:57:52;;;;;;;42.63;21.40;;;;;;;5.93;62.06;93782.16;5090198;28;20063;-70
2021/03/13 07:00:44;;;;;;;38.85;19.15;;;;;;;6.17;59.96;93785.53;5088718;28;20410;-69
2021/03/13 07:03:14;;;;;;;35.78;19.83;;;;;;;6.34;59.45;93776.28;5087898;28;20047;-70
2021/03/13 07:05:41;;;;;;;35.65;16.92;;;;;;;6.57;57.06;93775.41;5093744;28;20028;-70
2021/03/13 07:08:42;;;;;;;45.35;22.50;;;;;;;6.76;57.45;93774.59;5092459;28;20459;-70
2021/03/13 07:11:11;;;;;;;59.17;26.13;;;;;;;6.80;58.90;93781.66;5090353;28;20028;-70
2021/03/13 07:13:39;;;;;;;55.67;26.10;;;;;;;6.90;58.80;93775.41;5093529;28;20443;-70
2021/03/13 07:16:22;;;;;;;59.17;25.20;;;;;;;7.04;58.88;93786.00;5090742;28;20479;-70
2021/03/13 07:18:49;;;;;;;47.75;25.80;;;;;;;7.18;58.68;93789.47;5093449;28;20482;-70
2021/03/13 07:21:16;;;;;;;47.67;23.23;;;;;;;7.24;57.37;93784.84;5093579;28;20483;-70
2021/03/13 07:23:42;;;;;;;55.95;23.42;;;;;;;7.37;57.17;93789.41;5093634;28;20461;-70
2021/03/13 07:26:09;;;;;;;45.47;20.63;;;;;;;7.36;56.36;93787.03;5093691;28;20095;-71
2021/03/13 07:28:39;;;;;;;41.35;20.08;;;;;;;7.50;55.88;93782.50;5093529;28;20020;-70
2021/03/13 07:31:11;;;;;;;37.90;19.92;;;;;;;7.74;54.86;93786.84;5093245;28;20216;-71
2021/03/13 07:33:40;;;;;;;40.42;19.38;;;;;;;7.85;54.38;93788.19;5092069;28;20147;-70
2021/03/13 07:36:10;;;;;;;41.45;20.35;;;;;;;7.95;53.85;93787.19;5091922;28;20035;-71
2021/03/13 07:38:41;;;;;;;43.70;19.98;;;;;;;8.03;54.34;93789.91;5073213;28;20028;-71
2021/03/13 07:41:14;;;;;;;39.55;19.88;;;;;;;8.20;54.06;93784.00;5085323;28;20040;-70
2021/03/13 07:43:42;;;;;;;39.17;20.20;;;;;;;8.41;53.05;93788.88;5093428;28;20020;-70
2021/03/13 07:46:09;;;;;;;48.47;21.35;;;;;;;8.56;53.17;93785.84;5091727;28;20038;-71
2021/03/13 07:48:38;;;;;;;45.13;21.55;;;;;;;8.74;52.42;93783.34;5093366;28;20036;-70
2021/03/13 07:51:06;;;;;;;35.40;18.75;;;;;;;8.92;51.96;93777.03;5093599;28;20024;-71
2021/03/13 07:53:38;;;;;;;44.92;20.75;;;;;;;9.08;51.04;93771.31;5092550;28;20052;-71
2021/03/13 07:56:07;;;;;;;36.88;18.83;;;;;;;9.18;50.96;93773.72;5086869;28;20032;-69
2021/03/13 07:58:32;;;;;;;33.55;18.70;;;;;;;9.28;48.85;93783.31;5092493;28;20059;-69
2021/03/13 08:00:59;;;;;;;46.03;20.75;;;;;;;9.30;49.31;93787.25;5092844;28;20059;-71
2021/03/13 08:03:28;;;;;;;43.65;20.38;;;;;;;9.22;49.09;93790.66;5091359;28;20031;-71
2021/03/13 08:05:58;;;;;;;36.00;18.38;;;;;;;9.20;49.19;93787.53;5092509;28;20016;-71
2021/03/13 08:08:33;;;;;;;41.22;19.15;;;;;;;9.22;48.62;93786.13;5092706;28;20032;-71
2021/03/13 08:10:58;;;;;;;34.28;18.75;;;;;;;9.26;48.06;93790.81;5092067;28;20028;-71
2021/03/13 08:13:26;;;;;;;29.10;16.75;;;;;;;9.21;47.68;93791.72;5092118;28;20035;-72
2021/03/13 08:16:01;;;;;;;34.80;16.90;;;;;;;9.21;47.56;93794.38;5090972;28;20551;-72
2021/03/13 08:18:50;;;;;;;32.97;16.65;;;;;;;9.26;47.27;93796.13;5090783;28;20134;-70
2021/03/13 08:21:21;;;;;;;32.20;16.77;;;;;;;9.32;47.61;93798.38;5089882;28;20027;-71
2021/03/13 08:23:57;;;;;;;34.28;15.00;;;;;;;9.34;46.75;93798.84;5089192;28;20024;-70
2021/03/13 08:26:34;;;;;;;30.35;15.35;;;;;;;9.49;46.29;93804.84;5091174;28;20070;-70
2021/03/13 08:29:07;;;;;;;37.95;16.05;;;;;;;9.58;45.87;93803.78;5090086;28;20062;-68
2021/03/13 08:31:45;;;;;;;35.40;17.45;;;;;;;9.66;46.59;93802.25;5091488;28;20134;-70
2021/03/13 08:34:10;;;;;;;36.33;18.27;;;;;;;9.78;45.40;93805.09;5089992;28;20032;-70
2021/03/13 08:36:45;;;;;;;27.92;15.82;;;;;;;9.87;45.80;93801.66;5091749;28;20024;-70
2021/03/13 08:39:13;;;;;;;28.15;15.80;;;;;;;9.92;46.18;93804.97;5090892;28;20035;-70
2021/03/13 08:41:42;;;;;;;27.02;14.43;;;;;;;10.08;46.26;93810.66;5090582;28;20070;-70
2021/03/13 08:44:10;;;;;;;22.02;13.85;;;;;;;10.32;45.93;93806.78;5089172;28;20032;-70
2021/03/13 08:46:43;;;;;;;28.42;13.05;;;;;;;10.62;43.84;93808.56;5088640;28;20122;-71
2021/03/13 08:49:09;;;;;;;24.83;13.27;;;;;;;10.86;43.58;93811.81;5088741;28;20023;-70
2021/03/13 08:51:35;;;;;;;24.38;13.68;;;;;;;11.07;43.83;93809.28;5090848;28;20035;-71
2021/03/13 08:54:00;;;;;;;23.00;14.07;;;;;;;11.27;43.55;93805.94;5086343;28;20048;-70
2021/03/13 08:56:40;;;;;;;28.75;13.23;;;;;;;11.54;41.97;93809.31;5090939;28;20081;-70
2021/03/13 08:59:13;;;;;;;26.77;13.60;;;;;;;11.76;41.56;93809.06;5088357;28;20032;-71
2021/03/13 09:01:40;;;;;;;28.70;14.48;;;;;;;11.84;41.76;93813.59;5091032;28;20057;-70
2021/03/13 09:04:06;;;;;;;29.73;13.43;;;;;;;12.02;41.99;93816.19;5090888;28;20027;-70
2021/03/13 09:06:32;;;;;;;24.17;13.00;;;;;;;12.20;39.96;93824.91;5091433;28;20063;-70
2021/03/13 09:09:08;;;;;;;29.70;15.48;;;;;;;12.17;40.02;93821.00;5091220;28;20111;-70
2021/03/13 09:11:35;;;;;;;38.13;18.88;;;;;;;12.01;40.56;93812.75;5086886;28;20481;-70
2021/03/13 09:14:01;;;;;;;34.97;16.58;;;;;;;12.04;40.20;93813.97;5089741;28;20028;-70
2021/03/13 09:16:27;;;;;;;37.17;16.63;;;;;;;12.03;41.12;93821.22;5091092;28;20030;-71
2021/03/13 09:18:56;;;;;;;33.35;16.30;;;;;;;12.15;40.84;93812.53;5091056;28;20031;-70
2021/03/13 09:21:44;;;;;;;30.27;17.77;;;;;;;12.32;41.47;93821.53;5089457;28;20063;-70
2021/03/13 09:24:28;;;;;;;32.40;16.52;;;;;;;12.40;41.51;93824.13;5088757;28;20024;-70
2021/03/13 09:26:56;;;;;;;27.42;14.77;;;;;;;12.43;40.76;93828.81;5088839;28;20461;-70
2021/03/13 09:29:28;;;;;;;27.85;14.52;;;;;;;12.45;40.31;93831.19;5090443;28;20110;-70
2021/03/13 09:31:58;;;;;;;31.45;13.32;;;;;;;12.23;39.88;93822.38;5089545;28;20061;-70
2021/03/13 09:34:25;;;;;;;31.83;15.50;;;;;;;12.08;41.40;93828.25;5089370;28;20028;-70
2021/03/13 09:36:50;;;;;;;32.42;15.73;;;;;;;12.02;41.64;93827.66;5089190;28;20028;-70
2021/03/13 09:39:27;;;;;;;41.13;17.60;;;;;;;12.02;42.59;93829.53;5089572;28;20024;-70
2021/03/13 09:42:18;;;;;;;42.97;18.55;;;;;;;12.03;42.98;93836.47;5089377;28;20034;-70
2021/03/13 09:44:50;;;;;;;29.17;17.65;;;;;;;12.03;42.49;93839.16;5086819;28;20059;-70
2021/03/13 09:47:20;;;;;;;;;;;;;;;11.91;42.32;93828.38;5091029;28;20081;-70
2021/03/13 09:49:52;;;;;;;38.08;18.58;;;;;;;11.77;42.89;93828.53;5089231;28;19912;-70
2021/03/13 09:52:34;;;;;;;;;;;;;;;11.75;42.60;93831.53;5088625;28;20494;-70
2021/03/13 09:55:02;;;;;;;42.72;21.85;;;;;;;11.61;42.67;93822.94;5090494;28;20113;-70
2021/03/13 09:57:28;;;;;;;39.72;22.00;;;;;;;11.58;43.02;93823.56;5090514;28;20040;-70
2021/03/13 09:59:54;;;;;;;42.00;19.70;;;;;;;11.66;42.89;93814.75;5089024;28;20471;-70
2021/03/13 10:02:21;;;;;;;48.47;23.08;;;;;;;11.68;43.34;93820.56;5090332;28;20159;-70
2021/03/13 10:04:48;;;;;;;53.85;27.77;;;;;;;11.68;45.67;93815.22;5090675;28;20038;-70
2021/03/13 10:07:15;;;;;;;58.55;28.40;;;;;;;11.79;45.03;93815.66;5090248;28;20058;-70
2021/03/13 10:10:00;;;;;;;56.28;28.98;;;;;;;11.78;43.74;93809.50;5089099;28;20035;-70
2021/03/13 10:12:34;;;;;;;63.85;29.27;;;;;;;11.82;45.41;93805.13;5090445;28;20028;-70
2021/03/13 10:15:15;;;;;;;50.17;29.60;;;;;;;11.69;44.40;93792.75;5090221;28;20028;-70
2021/03/13 10:17:59;;;;;;;53.47;28.67;;;;;;;11.74;45.91;93795.25;5090101;28;20024;-70
2021/03/13 10:20:35;;;;;;;56.63;27.40;;;;;;;11.86;44.97;93810.59;5090103;28;20435;-70
2021/03/13 10:23:22;;;;;;;50.47;26.75;;;;;;;11.91;44.46;93828.38;5090370;28;20066;-70
2021/03/13 10:26:00;;;;;;;52.58;28.45;;;;;;;12.29;44.68;93822.94;5084267;28;20039;-70
2021/03/13 10:28:36;;;;;;;50.67;28.60;;;;;;;12.41;46.39;93819.56;5087473;28;20072;-70
2021/03/13 10:31:04;;;;;;;53.92;28.55;;;;;;;12.58;46.16;93835.50;5089151;28;20161;-70
2021/03/13 10:33:31;;;;;;;55.55;28.75;;;;;;;12.86;44.56;93818.91;5088734;28;20035;-70
2021/03/13 10:35:57;;;;;;;64.13;29.60;;;;;;;12.99;44.93;93822.44;5088903;28;20024;-70
2021/03/13 10:38:22;;;;;;;49.33;28.42;;;;;;;13.15;45.90;93826.06;5092918;28;20505;-70
2021/03/13 10:40:50;;;;;;;51.15;28.63;;;;;;;13.36;43.45;93827.94;5093965;28;20034;-70
2021/03/13 10:43:26;;;;;;;51.97;27.25;;;;;;;13.48;41.94;93830.63;5093577;28;20502;-70
2021/03/13 10:45:58;;;;;;;56.55;27.33;;;;;;;13.50;41.99;93811.56;5094196;28;20047;-70
2021/03/13 10:48:29;;;;;;;51.97;25.10;;;;;;;13.49;42.18;93824.16;5094003;28;20492;-70
2021/03/13 10:50:55;;;;;;;44.45;26.92;;;;;;;13.55;42.13;93806.75;5088878;28;20032;-70
2021/03/13 10:53:34;;;;;;;52.22;27.13;;;;;;;13.24;43.32;93817.94;5093569;28;20222;-70
2021/03/13 10:56:03;;;;;;;43.85;24.70;;;;;;;13.04;43.50;93808.84;5092575;28;20042;-70
2021/03/13 10:58:31;;;;;;;44.13;26.52;;;;;;;12.90;42.57;93809.13;5093700;28;20112;-70
2021/03/13 11:00:58;;;;;;;45.28;25.50;;;;;;;12.74;42.81;93800.94;5093808;28;20077;-70
2021/03/13 11:03:24;;;;;;;49.40;26.15;;;;;;;12.62;43.94;93804.31;5093681;28;20063;-70
2021/03/13 11:05:51;;;;;;;55.88;27.50;;;;;;;12.74;45.10;93805.47;5092099;28;20016;-70
2021/03/13 11:08:28;;;;;;;43.17;23.48;;;;;;;12.93;44.15;93810.38;5092170;28;20032;-70
2021/03/13 11:10:54;;;;;;;56.50;26.38;;;;;;;12.86;43.59;93818.91;5093427;28;20023;-70
2021/03/13 11:13:21;;;;;;;43.50;24.65;;;;;;;12.75;43.08;93817.75;5092230;28;20062;-70
2021/03/13 11:15:46;;;;;;;42.65;25.05;;;;;;;12.77;43.04;93815.53;5093196;28;20032;-70
2021/03/13 11:18:13;;;;;;;49.17;23.52;;;;;;;12.77;43.25;93826.25;5093602;28;20042;-70
2021/03/13 11:20:38;;;;;;;45.17;25.08;;;;;;;12.70;44.01;93820.63;5091880;28;20039;-70
2021/03/13 11:23:05;;;;;;;45.42;23.30;;;;;;;12.89;43.21;93815.59;5093346;28;20035;-70
2021/03/13 11:25:30;;;;;;;52.00;23.45;;;;;;;12.98;44.38;93805.56;5091961;28;20123;-70
2021/03/13 11:27:56;;;;;;;47.22;22.30;;;;;;;13.08;43.54;93804.41;5093090;28;20103;-70
2021/03/13 11:30:22;;;;;;;45.88;19.88;;;;;;;13.14;43.51;93794.28;5093250;28;20032;-70
2021/03/13 11:32:47;;;;;;;33.10;18.27;;;;;;;12.85;43.68;93793.28;5092763;28;20487;-70
2021/03/13 11:35:13;;;;;;;34.10;18.02;;;;;;;13.05;44.20;93787.13;5091525;28;20126;-70